sensor_id;sensor_type;location;lat;lon;timestamp;pressure;altitude;pressure_sealevel;temperature;humidity
68197;BME280;55019;49.382;11.358;2023-01-25T00:00:44;98222.34;;;0.05;98.42
68197;BME280;55019;49.382;11.358;2023-01-25T00:03:09;98229.97;;;0.05;97.93
68197;BME280;55019;49.382;11.358;2023-01-25T00:05:34;98225.53;;;0.10;97.84
68197;BME280;55019;49.382;11.358;2023-01-25T00:08:00;98224.13;;;0.03;98.50
68197;BME280;55019;49.382;11.358;2023-01-25T00:10:25;98219.88;;;0.04;98.15
68197;BME280;55019;49.382;11.358;2023-01-25T00:12:50;98219.50;;;-0.08;98.92
68197;BME280;55019;49.382;11.358;2023-01-25T00:15:16;98236.53;;;-0.10;98.64
68197;BME280;55019;49.382;11.358;2023-01-25T00:17:41;98232.88;;;-0.03;98.51
68197;BME280;55019;49.382;11.358;2023-01-25T00:20:07;98220.44;;;0.10;98.45
68197;BME280;55019;49.382;11.358;2023-01-25T00:22:33;98216.00;;;0.15;97.94
68197;BME280;55019;49.382;11.358;2023-01-25T00:24:58;98221.34;;;0.09;97.41
68197;BME280;55019;49.382;11.358;2023-01-25T00:27:25;98221.53;;;0.05;98.25
68197;BME280;55019;49.382;11.358;2023-01-25T00:29:50;98222.59;;;-0.01;97.82
68197;BME280;55019;49.382;11.358;2023-01-25T00:34:50;98226.59;;;-0.16;97.93
68197;BME280;55019;49.382;11.358;2023-01-25T00:37:34;98208.59;;;-0.10;98.64
68197;BME280;55019;49.382;11.358;2023-01-25T00:40:00;98219.91;;;0.02;97.63
68197;BME280;55019;49.382;11.358;2023-01-25T00:42:26;98211.81;;;-0.07;98.02
68197;BME280;55019;49.382;11.358;2023-01-25T00:44:51;98222.19;;;-0.11;98.21
68197;BME280;55019;49.382;11.358;2023-01-25T00:47:17;98214.97;;;-0.01;97.92
68197;BME280;55019;49.382;11.358;2023-01-25T00:49:43;98203.38;;;-0.07;97.86
68197;BME280;55019;49.382;11.358;2023-01-25T00:52:09;98204.41;;;-0.11;98.02
68197;BME280;55019;49.382;11.358;2023-01-25T00:54:35;98204.38;;;-0.33;98.29
68197;BME280;55019;49.382;11.358;2023-01-25T00:57:00;98191.50;;;-0.28;98.34
68197;BME280;55019;49.382;11.358;2023-01-25T00:59:26;98208.50;;;-0.09;98.05
68197;BME280;55019;49.382;11.358;2023-01-25T01:01:52;98198.66;;;-0.16;98.13
68197;BME280;55019;49.382;11.358;2023-01-25T01:04:19;98201.78;;;-0.10;98.39
68197;BME280;55019;49.382;11.358;2023-01-25T01:06:44;98207.56;;;-0.06;98.29
68197;BME280;55019;49.382;11.358;2023-01-25T01:09:15;98192.69;;;-0.15;98.25
68197;BME280;55019;49.382;11.358;2023-01-25T01:11:41;98197.34;;;-0.05;98.05
68197;BME280;55019;49.382;11.358;2023-01-25T01:14:06;98188.19;;;-0.09;98.58
68197;BME280;55019;49.382;11.358;2023-01-25T01:16:32;98197.06;;;0.02;97.79
68197;BME280;55019;49.382;11.358;2023-01-25T01:18:57;98191.56;;;0.13;97.85
68197;BME280;55019;49.382;11.358;2023-01-25T01:21:23;98190.19;;;0.04;97.28
68197;BME280;55019;49.382;11.358;2023-01-25T01:23:48;98200.97;;;-0.10;97.84
68197;BME280;55019;49.382;11.358;2023-01-25T01:26:15;98199.97;;;-0.06;98.00
68197;BME280;55019;49.382;11.358;2023-01-25T01:28:43;98193.72;;;-0.19;97.59
68197;BME280;55019;49.382;11.358;2023-01-25T01:31:20;98197.81;;;-0.17;98.28
68197;BME280;55019;49.382;11.358;2023-01-25T01:33:50;98193.72;;;-0.42;98.69
68197;BME280;55019;49.382;11.358;2023-01-25T01:36:17;98194.91;;;-0.29;98.65
68197;BME280;55019;49.382;11.358;2023-01-25T01:38:43;98197.03;;;-0.40;98.29
68197;BME280;55019;49.382;11.358;2023-01-25T01:41:09;98209.19;;;-0.25;99.20
68197;BME280;55019;49.382;11.358;2023-01-25T01:43:35;98203.09;;;-0.21;97.69
68197;BME280;55019;49.382;11.358;2023-01-25T01:46:26;98198.13;;;-0.24;98.33
68197;BME280;55019;49.382;11.358;2023-01-25T01:49:02;98200.69;;;-0.47;99.02
68197;BME280;55019;49.382;11.358;2023-01-25T01:52:02;98204.97;;;-0.48;99.82
68197;BME280;55019;49.382;11.358;2023-01-25T01:54:33;98197.00;;;-0.39;99.30
68197;BME280;55019;49.382;11.358;2023-01-25T01:57:06;98195.25;;;-0.60;99.80
68197;BME280;55019;49.382;11.358;2023-01-25T02:02:05;98201.09;;;-0.58;99.46
68197;BME280;55019;49.382;11.358;2023-01-25T02:07:24;98206.75;;;-0.50;99.19
68197;BME280;55019;49.382;11.358;2023-01-25T02:09:51;98200.69;;;-0.47;98.82
68197;BME280;55019;49.382;11.358;2023-01-25T02:12:17;98197.69;;;-0.35;98.06
68197;BME280;55019;49.382;11.358;2023-01-25T02:14:48;98190.66;;;-0.50;98.03
68197;BME280;55019;49.382;11.358;2023-01-25T02:17:14;98201.44;;;-0.44;98.65
68197;BME280;55019;49.382;11.358;2023-01-25T02:22:22;98202.88;;;-0.38;98.81
68197;BME280;55019;49.382;11.358;2023-01-25T02:25:07;98204.69;;;-0.63;99.37
68197;BME280;55019;49.382;11.358;2023-01-25T02:27:37;98193.34;;;-0.55;99.67
68197;BME280;55019;49.382;11.358;2023-01-25T02:30:03;98203.47;;;-0.53;99.22
68197;BME280;55019;49.382;11.358;2023-01-25T02:32:30;98198.94;;;-0.45;99.00
68197;BME280;55019;49.382;11.358;2023-01-25T02:34:56;98201.28;;;-0.62;98.68
68197;BME280;55019;49.382;11.358;2023-01-25T02:37:21;98193.88;;;-0.68;98.80
68197;BME280;55019;49.382;11.358;2023-01-25T02:39:47;98193.66;;;-0.62;98.29
68197;BME280;55019;49.382;11.358;2023-01-25T02:42:12;98196.63;;;-0.51;97.96
68197;BME280;55019;49.382;11.358;2023-01-25T02:44:38;98198.78;;;-0.64;97.94
68197;BME280;55019;49.382;11.358;2023-01-25T02:47:03;98192.53;;;-0.55;98.44
68197;BME280;55019;49.382;11.358;2023-01-25T02:49:29;98191.00;;;-0.82;98.75
68197;BME280;55019;49.382;11.358;2023-01-25T02:51:54;98191.25;;;-0.65;98.67
68197;BME280;55019;49.382;11.358;2023-01-25T02:54:21;98192.78;;;-0.61;99.13
68197;BME280;55019;49.382;11.358;2023-01-25T02:56:48;98196.38;;;-0.45;98.96
68197;BME280;55019;49.382;11.358;2023-01-25T02:59:13;98179.78;;;-0.32;98.16
68197;BME280;55019;49.382;11.358;2023-01-25T03:01:41;98184.47;;;-0.43;97.49
68197;BME280;55019;49.382;11.358;2023-01-25T03:04:07;98192.09;;;-0.43;97.86
68197;BME280;55019;49.382;11.358;2023-01-25T03:06:33;98184.00;;;-0.31;98.82
68197;BME280;55019;49.382;11.358;2023-01-25T03:08:59;98175.38;;;-0.27;98.32
68197;BME280;55019;49.382;11.358;2023-01-25T03:11:25;98169.75;;;-0.35;97.92
68197;BME280;55019;49.382;11.358;2023-01-25T03:13:50;98177.38;;;-0.35;97.73
68197;BME280;55019;49.382;11.358;2023-01-25T03:16:16;98174.97;;;-0.38;98.10
68197;BME280;55019;49.382;11.358;2023-01-25T03:18:42;98166.19;;;-0.53;97.68
68197;BME280;55019;49.382;11.358;2023-01-25T03:21:10;98175.34;;;-0.70;98.88
68197;BME280;55019;49.382;11.358;2023-01-25T03:23:36;98174.00;;;-0.57;98.50
68197;BME280;55019;49.382;11.358;2023-01-25T03:26:12;98167.28;;;-0.58;98.30
68197;BME280;55019;49.382;11.358;2023-01-25T03:28:39;98167.63;;;-0.67;99.18
68197;BME280;55019;49.382;11.358;2023-01-25T03:31:07;98169.28;;;-0.66;99.54
68197;BME280;55019;49.382;11.358;2023-01-25T03:33:33;98164.09;;;-0.63;98.51
68197;BME280;55019;49.382;11.358;2023-01-25T03:35:59;98167.63;;;-0.67;99.42
68197;BME280;55019;49.382;11.358;2023-01-25T03:38:25;98169.41;;;-0.69;99.19
68197;BME280;55019;49.382;11.358;2023-01-25T03:40:50;98165.84;;;-0.65;98.82
68197;BME280;55019;49.382;11.358;2023-01-25T03:43:16;98156.75;;;-0.71;99.21
68197;BME280;55019;49.382;11.358;2023-01-25T03:45:42;98165.13;;;-0.69;99.10
68197;BME280;55019;49.382;11.358;2023-01-25T03:48:07;98157.34;;;-0.64;98.67
68197;BME280;55019;49.382;11.358;2023-01-25T03:50:33;98154.34;;;-0.52;98.55
68197;BME280;55019;49.382;11.358;2023-01-25T03:52:58;98150.28;;;-0.56;98.94
68197;BME280;55019;49.382;11.358;2023-01-25T03:55:30;98146.13;;;-0.59;98.95
68197;BME280;55019;49.382;11.358;2023-01-25T03:57:55;98141.66;;;-0.52;99.32
68197;BME280;55019;49.382;11.358;2023-01-25T04:00:21;98134.22;;;-0.35;97.73
68197;BME280;55019;49.382;11.358;2023-01-25T04:02:46;98135.81;;;-0.54;98.41
68197;BME280;55019;49.382;11.358;2023-01-25T04:05:12;98133.88;;;-0.69;98.26
68197;BME280;55019;49.382;11.358;2023-01-25T04:07:38;98124.41;;;-0.66;98.18
68197;BME280;55019;49.382;11.358;2023-01-25T04:10:04;98125.00;;;-0.59;98.66
68197;BME280;55019;49.382;11.358;2023-01-25T04:12:30;98128.81;;;-0.48;98.86
68197;BME280;55019;49.382;11.358;2023-01-25T04:14:56;98114.44;;;-0.49;98.54
68197;BME280;55019;49.382;11.358;2023-01-25T04:17:21;98108.50;;;-0.48;97.99
68197;BME280;55019;49.382;11.358;2023-01-25T04:19:47;98123.94;;;-0.54;98.00
68197;BME280;55019;49.382;11.358;2023-01-25T04:22:13;98103.72;;;-0.78;99.33
68197;BME280;55019;49.382;11.358;2023-01-25T04:24:39;98118.75;;;-0.51;99.17
68197;BME280;55019;49.382;11.358;2023-01-25T04:27:08;98101.69;;;-0.47;98.60
68197;BME280;55019;49.382;11.358;2023-01-25T04:29:34;98124.16;;;-0.38;98.68
68197;BME280;55019;49.382;11.358;2023-01-25T04:32:00;98078.84;;;-0.47;98.84
68197;BME280;55019;49.382;11.358;2023-01-25T04:34:26;98090.81;;;-0.94;99.46
68197;BME280;55019;49.382;11.358;2023-01-25T04:36:52;98099.47;;;-0.99;100.00
68197;BME280;55019;49.382;11.358;2023-01-25T04:39:18;98109.16;;;-0.87;99.90
68197;BME280;55019;49.382;11.358;2023-01-25T04:41:44;98077.41;;;-0.97;100.00
68197;BME280;55019;49.382;11.358;2023-01-25T04:44:10;98072.72;;;-1.08;100.00
68197;BME280;55019;49.382;11.358;2023-01-25T04:46:35;98067.13;;;-0.94;100.00
68197;BME280;55019;49.382;11.358;2023-01-25T04:49:01;98061.59;;;-0.82;99.80
68197;BME280;55019;49.382;11.358;2023-01-25T04:51:27;98087.28;;;-0.68;99.42
68197;BME280;55019;49.382;11.358;2023-01-25T04:53:53;98065.97;;;-0.86;100.00
68197;BME280;55019;49.382;11.358;2023-01-25T04:56:18;98065.09;;;-0.63;99.32
68197;BME280;55019;49.382;11.358;2023-01-25T04:58:44;98062.56;;;-0.85;99.34
68197;BME280;55019;49.382;11.358;2023-01-25T05:01:12;98059.25;;;-0.87;99.96
68197;BME280;55019;49.382;11.358;2023-01-25T05:03:37;98067.28;;;-0.54;99.04
68197;BME280;55019;49.382;11.358;2023-01-25T05:06:03;98039.25;;;-0.53;98.68
68197;BME280;55019;49.382;11.358;2023-01-25T05:08:28;98037.94;;;-0.61;98.21
68197;BME280;55019;49.382;11.358;2023-01-25T05:10:53;98059.25;;;-0.44;98.48
68197;BME280;55019;49.382;11.358;2023-01-25T05:13:19;98055.72;;;-0.41;97.71
68197;BME280;55019;49.382;11.358;2023-01-25T05:15:45;98059.53;;;-0.51;98.35
68197;BME280;55019;49.382;11.358;2023-01-25T05:18:10;98060.53;;;-0.55;97.86
68197;BME280;55019;49.382;11.358;2023-01-25T05:20:35;98055.69;;;-0.40;98.07
68197;BME280;55019;49.382;11.358;2023-01-25T05:23:01;98057.13;;;-0.54;98.24
68197;BME280;55019;49.382;11.358;2023-01-25T05:25:27;98026.53;;;-0.51;97.88
68197;BME280;55019;49.382;11.358;2023-01-25T05:28:11;98036.06;;;-0.36;97.76
68197;BME280;55019;49.382;11.358;2023-01-25T05:30:37;98025.50;;;-0.47;97.71
68197;BME280;55019;49.382;11.358;2023-01-25T05:33:03;98037.06;;;-0.60;97.20
68197;BME280;55019;49.382;11.358;2023-01-25T05:35:29;98031.03;;;-1.22;99.35
68197;BME280;55019;49.382;11.358;2023-01-25T05:37:56;98040.75;;;-1.12;99.40
68197;BME280;55019;49.382;11.358;2023-01-25T05:40:22;98059.28;;;-1.10;99.72
68197;BME280;55019;49.382;11.358;2023-01-25T05:42:57;98054.22;;;-1.33;100.00
68197;BME280;55019;49.382;11.358;2023-01-25T05:45:24;98067.44;;;-1.25;100.00
68197;BME280;55019;49.382;11.358;2023-01-25T05:47:54;98078.69;;;-1.09;100.00
68197;BME280;55019;49.382;11.358;2023-01-25T05:50:20;98061.56;;;-1.04;100.00
68197;BME280;55019;49.382;11.358;2023-01-25T05:52:46;98066.78;;;-0.85;99.44
68197;BME280;55019;49.382;11.358;2023-01-25T05:55:11;98039.41;;;-0.77;98.67
68197;BME280;55019;49.382;11.358;2023-01-25T05:57:37;98049.75;;;-0.60;98.63
68197;BME280;55019;49.382;11.358;2023-01-25T06:00:03;98057.75;;;-0.49;98.01
68197;BME280;55019;49.382;11.358;2023-01-25T06:02:29;98053.44;;;-0.90;98.92
68197;BME280;55019;49.382;11.358;2023-01-25T06:04:56;98055.50;;;-0.78;99.15
68197;BME280;55019;49.382;11.358;2023-01-25T06:07:21;98060.19;;;-0.46;98.05
68197;BME280;55019;49.382;11.358;2023-01-25T06:09:47;98067.16;;;-0.51;97.43
68197;BME280;55019;49.382;11.358;2023-01-25T06:12:19;98056.34;;;-0.56;97.38
68197;BME280;55019;49.382;11.358;2023-01-25T06:14:44;98056.06;;;-0.70;97.23
68197;BME280;55019;49.382;11.358;2023-01-25T06:17:12;98046.25;;;-0.79;97.51
68197;BME280;55019;49.382;11.358;2023-01-25T06:22:12;98034.03;;;-0.70;97.27
68197;BME280;55019;49.382;11.358;2023-01-25T06:24:50;98042.41;;;-0.68;97.15
68197;BME280;55019;49.382;11.358;2023-01-25T07:16:19;98030.19;;;-0.58;96.70
68197;BME280;55019;49.382;11.358;2023-01-25T07:18:46;98016.50;;;-0.54;96.20
68197;BME280;55019;49.382;11.358;2023-01-25T07:21:14;98037.84;;;-0.38;96.33
68197;BME280;55019;49.382;11.358;2023-01-25T07:23:45;98036.03;;;-0.56;96.13
68197;BME280;55019;49.382;11.358;2023-01-25T07:26:19;98034.63;;;-0.63;96.92
68197;BME280;55019;49.382;11.358;2023-01-25T07:28:48;98037.44;;;-0.49;96.32
68197;BME280;55019;49.382;11.358;2023-01-25T07:31:15;98045.03;;;-0.69;96.58
68197;BME280;55019;49.382;11.358;2023-01-25T07:33:49;98039.19;;;-0.50;96.65
68197;BME280;55019;49.382;11.358;2023-01-25T07:36:14;98044.66;;;-0.39;96.06
68197;BME280;55019;49.382;11.358;2023-01-25T07:38:40;98042.47;;;-0.48;95.88
68197;BME280;55019;49.382;11.358;2023-01-25T07:41:06;98043.28;;;-0.47;95.56
68197;BME280;55019;49.382;11.358;2023-01-25T07:43:32;98043.81;;;-0.61;96.26
68197;BME280;55019;49.382;11.358;2023-01-25T07:46:02;98043.41;;;-0.50;97.08
68197;BME280;55019;49.382;11.358;2023-01-25T07:48:28;98046.84;;;-0.51;96.11
68197;BME280;55019;49.382;11.358;2023-01-25T07:51:01;98035.06;;;-0.54;95.59
68197;BME280;55019;49.382;11.358;2023-01-25T07:53:40;98030.41;;;-0.43;95.31
68197;BME280;55019;49.382;11.358;2023-01-25T07:56:07;98031.09;;;-0.39;95.35
68197;BME280;55019;49.382;11.358;2023-01-25T07:58:33;98024.75;;;-0.49;94.92
68197;BME280;55019;49.382;11.358;2023-01-25T08:01:10;98030.84;;;-0.33;95.20
68197;BME280;55019;49.382;11.358;2023-01-25T08:03:36;98041.00;;;-0.33;94.66
68197;BME280;55019;49.382;11.358;2023-01-25T08:06:01;98035.13;;;-0.34;94.77
68197;BME280;55019;49.382;11.358;2023-01-25T08:08:33;98037.16;;;-0.42;94.88
68197;BME280;55019;49.382;11.358;2023-01-25T08:11:23;98038.94;;;-0.44;94.80
68197;BME280;55019;49.382;11.358;2023-01-25T08:13:50;98040.09;;;-0.52;94.10
68197;BME280;55019;49.382;11.358;2023-01-25T08:16:17;98043.91;;;-0.62;94.67
68197;BME280;55019;49.382;11.358;2023-01-25T08:18:46;98056.53;;;-0.82;95.46
68197;BME280;55019;49.382;11.358;2023-01-25T08:21:12;98054.75;;;-0.80;95.71
68197;BME280;55019;49.382;11.358;2023-01-25T08:23:37;98048.84;;;-0.59;95.48
68197;BME280;55019;49.382;11.358;2023-01-25T08:26:12;98051.16;;;-0.53;95.65
68197;BME280;55019;49.382;11.358;2023-01-25T08:28:38;98044.16;;;-0.68;95.49
68197;BME280;55019;49.382;11.358;2023-01-25T08:31:05;98043.66;;;-0.99;96.57
68197;BME280;55019;49.382;11.358;2023-01-25T08:33:31;98040.25;;;-0.98;96.31
68197;BME280;55019;49.382;11.358;2023-01-25T08:35:56;98042.66;;;-0.74;95.93
68197;BME280;55019;49.382;11.358;2023-01-25T08:38:22;98044.69;;;-1.05;96.65
68197;BME280;55019;49.382;11.358;2023-01-25T08:40:47;98041.72;;;-0.93;96.33
68197;BME280;55019;49.382;11.358;2023-01-25T08:43:13;98052.13;;;-1.22;97.47
68197;BME280;55019;49.382;11.358;2023-01-25T08:45:38;98035.44;;;-1.27;97.94
68197;BME280;55019;49.382;11.358;2023-01-25T08:48:04;98043.34;;;-1.13;98.17
68197;BME280;55019;49.382;11.358;2023-01-25T08:50:29;98027.25;;;-1.12;98.42
68197;BME280;55019;49.382;11.358;2023-01-25T08:52:55;98029.69;;;-0.88;97.10
68197;BME280;55019;49.382;11.358;2023-01-25T08:55:20;98022.94;;;-1.10;97.36
68197;BME280;55019;49.382;11.358;2023-01-25T08:57:46;98021.97;;;-1.29;97.93
68197;BME280;55019;49.382;11.358;2023-01-25T09:00:11;98027.78;;;-1.04;97.61
68197;BME280;55019;49.382;11.358;2023-01-25T09:02:37;98035.81;;;-0.93;98.21
68197;BME280;55019;49.382;11.358;2023-01-25T09:05:03;98029.28;;;-0.99;96.63
68197;BME280;55019;49.382;11.358;2023-01-25T09:07:28;98019.47;;;-0.86;97.85
68197;BME280;55019;49.382;11.358;2023-01-25T09:09:58;98019.00;;;-0.74;96.44
68197;BME280;55019;49.382;11.358;2023-01-25T09:12:24;98017.78;;;-0.86;96.00
68197;BME280;55019;49.382;11.358;2023-01-25T09:14:49;98014.38;;;-0.86;97.63
68197;BME280;55019;49.382;11.358;2023-01-25T09:17:14;98015.59;;;-0.73;96.08
68197;BME280;55019;49.382;11.358;2023-01-25T09:19:40;98000.47;;;-0.76;96.14
68197;BME280;55019;49.382;11.358;2023-01-25T09:22:07;98011.53;;;-0.57;96.27
68197;BME280;55019;49.382;11.358;2023-01-25T09:24:32;98006.09;;;-0.48;95.74
68197;BME280;55019;49.382;11.358;2023-01-25T09:26:58;98003.09;;;-0.79;96.74
68197;BME280;55019;49.382;11.358;2023-01-25T09:29:24;98001.63;;;-0.63;96.32
68197;BME280;55019;49.382;11.358;2023-01-25T09:31:49;98010.13;;;-0.64;96.84
68197;BME280;55019;49.382;11.358;2023-01-25T09:34:15;98009.53;;;-0.49;95.70
68197;BME280;55019;49.382;11.358;2023-01-25T09:36:41;98011.94;;;-0.26;95.30
68197;BME280;55019;49.382;11.358;2023-01-25T09:39:17;98004.91;;;-0.20;93.91
68197;BME280;55019;49.382;11.358;2023-01-25T09:42:11;98006.28;;;-0.13;93.06
68197;BME280;55019;49.382;11.358;2023-01-25T09:44:54;97998.25;;;-0.22;93.74
68197;BME280;55019;49.382;11.358;2023-01-25T09:47:44;97997.50;;;-0.24;93.64
68197;BME280;55019;49.382;11.358;2023-01-25T09:55:20;97996.25;;;-0.16;92.96
68197;BME280;55019;49.382;11.358;2023-01-25T09:57:47;97984.91;;;-0.47;92.86
68197;BME280;55019;49.382;11.358;2023-01-25T10:00:22;97989.38;;;-0.74;95.36
68197;BME280;55019;49.382;11.358;2023-01-25T10:02:53;97986.53;;;-0.66;95.44
68197;BME280;55019;49.382;11.358;2023-01-25T10:05:25;97987.13;;;-0.81;95.51
68197;BME280;55019;49.382;11.358;2023-01-25T10:10:37;97968.84;;;-1.11;97.16
68197;BME280;55019;49.382;11.358;2023-01-25T10:13:03;97972.66;;;-0.79;96.76
68197;BME280;55019;49.382;11.358;2023-01-25T10:15:32;97981.28;;;-0.83;96.14
68197;BME280;55019;49.382;11.358;2023-01-25T10:21:54;97979.31;;;-0.35;94.85
68197;BME280;55019;49.382;11.358;2023-01-25T10:26:24;97969.09;;;-0.34;93.61
68197;BME280;55019;49.382;11.358;2023-01-25T10:28:58;97970.81;;;-0.14;92.57
68197;BME280;55019;49.382;11.358;2023-01-25T10:36:57;97965.38;;;0.13;92.59
68197;BME280;55019;49.382;11.358;2023-01-25T10:39:25;97957.16;;;0.26;91.05
68197;BME280;55019;49.382;11.358;2023-01-25T10:41:57;97957.63;;;0.34;91.63
68197;BME280;55019;49.382;11.358;2023-01-25T10:44:26;97946.97;;;0.26;91.05
68197;BME280;55019;49.382;11.358;2023-01-25T10:47:21;97953.16;;;0.39;91.56
68197;BME280;55019;49.382;11.358;2023-01-25T10:49:53;97945.94;;;0.30;91.20
68197;BME280;55019;49.382;11.358;2023-01-25T10:52:22;97948.63;;;0.46;91.10
68197;BME280;55019;49.382;11.358;2023-01-25T10:55:11;97936.47;;;0.34;90.37
68197;BME280;55019;49.382;11.358;2023-01-25T10:57:42;97933.59;;;0.41;90.26
68197;BME280;55019;49.382;11.358;2023-01-25T11:00:30;97919.50;;;0.34;91.20
68197;BME280;55019;49.382;11.358;2023-01-25T11:02:58;97927.00;;;-0.19;90.47
68197;BME280;55019;49.382;11.358;2023-01-25T11:05:29;97926.88;;;-0.16;91.17
68197;BME280;55019;49.382;11.358;2023-01-25T11:07:56;97918.63;;;-0.21;91.80
68197;BME280;55019;49.382;11.358;2023-01-25T11:10:33;97909.47;;;0.13;90.64
68197;BME280;55019;49.382;11.358;2023-01-25T11:15:42;97897.63;;;-0.45;92.82
68197;BME280;55019;49.382;11.358;2023-01-25T11:18:17;97889.00;;;-0.61;94.39
68197;BME280;55019;49.382;11.358;2023-01-25T11:20:43;97881.19;;;-0.18;93.58
68197;BME280;55019;49.382;11.358;2023-01-25T11:23:24;97881.56;;;-0.45;93.91
68197;BME280;55019;49.382;11.358;2023-01-25T11:25:51;97887.84;;;-0.54;94.43
68197;BME280;55019;49.382;11.358;2023-01-25T11:28:22;97885.19;;;-0.71;95.01
68197;BME280;55019;49.382;11.358;2023-01-25T11:30:51;97883.75;;;-0.76;95.14
68197;BME280;55019;49.382;11.358;2023-01-25T11:33:20;97868.72;;;-0.42;94.95
68197;BME280;55019;49.382;11.358;2023-01-25T11:38:38;97859.81;;;-0.32;94.75
68197;BME280;55019;49.382;11.358;2023-01-25T11:41:32;97864.75;;;-0.09;92.63
68197;BME280;55019;49.382;11.358;2023-01-25T11:47:02;97859.09;;;0.21;91.97
68197;BME280;55019;49.382;11.358;2023-01-25T11:52:38;97851.16;;;0.28;90.66
68197;BME280;55019;49.382;11.358;2023-01-25T11:55:25;97848.72;;;0.25;90.20
68197;BME280;55019;49.382;11.358;2023-01-25T12:06:59;97820.53;;;0.48;89.60
68197;BME280;55019;49.382;11.358;2023-01-25T12:15:33;97809.91;;;0.57;89.62
68197;BME280;55019;49.382;11.358;2023-01-25T12:21:21;97798.22;;;0.36;89.98
68197;BME280;55019;49.382;11.358;2023-01-25T12:26:43;97765.53;;;0.29;90.30
68197;BME280;55019;49.382;11.358;2023-01-25T12:29:25;97770.44;;;0.15;90.54
68197;BME280;55019;49.382;11.358;2023-01-25T12:34:37;97753.69;;;0.11;91.25
68197;BME280;55019;49.382;11.358;2023-01-25T12:37:16;97744.19;;;0.14;90.98
68197;BME280;55019;49.382;11.358;2023-01-25T12:39:47;97741.34;;;0.03;91.41
68197;BME280;55019;49.382;11.358;2023-01-25T12:42:19;97737.03;;;0.22;91.07
68197;BME280;55019;49.382;11.358;2023-01-25T12:44:53;97730.81;;;0.11;91.42
68197;BME280;55019;49.382;11.358;2023-01-25T12:47:36;97728.13;;;-0.21;92.27
68197;BME280;55019;49.382;11.358;2023-01-25T12:50:14;97723.59;;;-0.33;92.63
68197;BME280;55019;49.382;11.358;2023-01-25T12:52:46;97720.09;;;-0.12;92.24
68197;BME280;55019;49.382;11.358;2023-01-25T12:55:15;97700.47;;;-0.27;92.35
68197;BME280;55019;49.382;11.358;2023-01-25T13:00:40;97691.84;;;-0.23;94.27
68197;BME280;55019;49.382;11.358;2023-01-25T13:06:02;97691.00;;;-0.42;94.34
68197;BME280;55019;49.382;11.358;2023-01-25T13:11:17;97679.88;;;-0.21;92.92
68197;BME280;55019;49.382;11.358;2023-01-25T13:13:45;97679.31;;;-0.09;92.85
68197;BME280;55019;49.382;11.358;2023-01-25T13:18:54;97688.06;;;0.02;92.04
68197;BME280;55019;49.382;11.358;2023-01-25T13:21:39;97677.94;;;-0.16;92.96
68197;BME280;55019;49.382;11.358;2023-01-25T13:24:30;97686.84;;;-0.08;92.85
68197;BME280;55019;49.382;11.358;2023-01-25T13:26:58;97684.09;;;-0.03;92.81
68197;BME280;55019;49.382;11.358;2023-01-25T13:31:57;97674.63;;;0.00;92.51
68197;BME280;55019;49.382;11.358;2023-01-25T13:37:48;97670.06;;;0.06;91.65
68197;BME280;55019;49.382;11.358;2023-01-25T13:40:26;97673.56;;;0.04;91.60
68197;BME280;55019;49.382;11.358;2023-01-25T13:43:17;97667.59;;;0.05;91.32
68197;BME280;55019;49.382;11.358;2023-01-25T13:45:44;97661.38;;;0.10;91.70
68197;BME280;55019;49.382;11.358;2023-01-25T13:48:20;97655.78;;;0.04;90.94
68197;BME280;55019;49.382;11.358;2023-01-25T13:50:52;97654.53;;;0.29;89.88
68197;BME280;55019;49.382;11.358;2023-01-25T13:53:22;97654.50;;;0.12;89.86
68197;BME280;55019;49.382;11.358;2023-01-25T13:55:57;97648.31;;;0.18;90.82
68197;BME280;55019;49.382;11.358;2023-01-25T13:58:32;97643.16;;;0.02;90.47
68197;BME280;55019;49.382;11.358;2023-01-25T14:01:06;97645.91;;;-0.02;91.79
68197;BME280;55019;49.382;11.358;2023-01-25T14:03:45;97646.81;;;0.14;90.95
68197;BME280;55019;49.382;11.358;2023-01-25T14:06:17;97636.38;;;0.03;90.82
68197;BME280;55019;49.382;11.358;2023-01-25T14:08:44;97628.13;;;-0.02;90.79
68197;BME280;55019;49.382;11.358;2023-01-25T14:11:17;97635.16;;;0.10;90.79
68197;BME280;55019;49.382;11.358;2023-01-25T14:14:13;97625.00;;;0.10;90.66
68197;BME280;55019;49.382;11.358;2023-01-25T14:16:40;97623.22;;;0.12;91.12
68197;BME280;55019;49.382;11.358;2023-01-25T14:19:36;97627.59;;;0.08;91.84
68197;BME280;55019;49.382;11.358;2023-01-25T14:22:28;97627.69;;;0.07;90.64
68197;BME280;55019;49.382;11.358;2023-01-25T14:25:12;97619.22;;;0.06;91.73
68197;BME280;55019;49.382;11.358;2023-01-25T14:27:56;97621.63;;;0.09;90.94
68197;BME280;55019;49.382;11.358;2023-01-25T14:30:24;97623.13;;;-0.20;92.07
68197;BME280;55019;49.382;11.358;2023-01-25T14:32:53;97614.13;;;-0.27;92.78
68197;BME280;55019;49.382;11.358;2023-01-25T14:35:38;97627.00;;;-0.13;93.42
68197;BME280;55019;49.382;11.358;2023-01-25T14:38:24;97618.78;;;-0.02;91.89
68197;BME280;55019;49.382;11.358;2023-01-25T14:43:57;97609.13;;;-0.64;94.45
68197;BME280;55019;49.382;11.358;2023-01-25T14:46:33;97607.34;;;-0.27;93.43
68197;BME280;55019;49.382;11.358;2023-01-25T14:51:32;97609.03;;;-0.27;92.93
68197;BME280;55019;49.382;11.358;2023-01-25T14:54:04;97601.50;;;-0.29;93.18
68197;BME280;55019;49.382;11.358;2023-01-25T14:56:34;97609.88;;;-0.27;92.31
68197;BME280;55019;49.382;11.358;2023-01-25T14:59:02;97616.03;;;-0.49;92.56
68197;BME280;55019;49.382;11.358;2023-01-25T15:01:36;97605.66;;;-0.45;93.87
68197;BME280;55019;49.382;11.358;2023-01-25T15:04:02;97602.69;;;-0.71;93.78
68197;BME280;55019;49.382;11.358;2023-01-25T15:06:28;97597.19;;;-0.62;94.20
68197;BME280;55019;49.382;11.358;2023-01-25T15:08:54;97592.69;;;-0.74;94.55
68197;BME280;55019;49.382;11.358;2023-01-25T15:11:32;97598.59;;;-0.92;95.45
68197;BME280;55019;49.382;11.358;2023-01-25T15:14:18;97589.53;;;-1.16;96.99
68197;BME280;55019;49.382;11.358;2023-01-25T15:16:44;97585.56;;;-1.03;98.02
68197;BME280;55019;49.382;11.358;2023-01-25T15:19:28;97584.72;;;-0.85;97.19
68197;BME280;55019;49.382;11.358;2023-01-25T15:21:56;97579.34;;;-0.61;96.18
68197;BME280;55019;49.382;11.358;2023-01-25T15:24:22;97581.53;;;-0.36;95.04